createdAt,value
2023-10-02T00:00:39.412Z,7.7
2023-10-02T00:01:54.723Z,7.7
2023-10-02T00:03:10.034Z,8.1
2023-10-02T00:04:26.326Z,7.8
2023-10-02T00:05:42.618Z,7.4
2023-10-02T00:06:58.902Z,7.6
2023-10-02T00:08:15.192Z,7.4
2023-10-02T00:09:31.487Z,7.4
2023-10-02T00:10:47.785Z,7.7
2023-10-02T00:12:04.086Z,8.1
2023-10-02T00:13:20.371Z,7.6
2023-10-02T00:14:36.666Z,7.6
2023-10-02T00:15:52.967Z,7.8
2023-10-02T00:17:09.249Z,7.6
2023-10-02T00:19:41.853Z,7.2
2023-10-02T00:20:57.151Z,7.7
2023-10-02T00:22:13.450Z,7.7
2023-10-02T00:23:29.739Z,7.5
2023-10-02T00:24:46.038Z,7
2023-10-02T00:27:18.634Z,7.6
2023-10-02T00:28:34.924Z,7.7
2023-10-02T00:29:51.210Z,7.7
2023-10-02T00:31:07.498Z,7.5
2023-10-02T00:32:22.815Z,7.5
2023-10-02T00:33:39.109Z,7.5
2023-10-02T00:34:55.420Z,8
2023-10-02T00:36:11.695Z,7.5
2023-10-02T00:37:28.001Z,7.8
2023-10-02T00:38:44.301Z,7.6
2023-10-02T00:40:00.595Z,7.6
2023-10-02T00:41:16.889Z,7.8
2023-10-02T00:42:33.183Z,7.7
2023-10-02T00:43:49.462Z,7.3
2023-10-02T00:45:05.764Z,7.4
2023-10-02T00:46:22.059Z,7.8
2023-10-02T00:47:38.352Z,7.2
2023-10-02T00:48:53.657Z,7.8
2023-10-02T00:50:09.947Z,7.8
2023-10-02T00:51:26.238Z,8.1
2023-10-02T00:52:42.531Z,9.5
2023-10-02T00:53:58.837Z,8.6
2023-10-02T00:55:15.121Z,7.6
2023-10-02T00:57:47.721Z,8.5
2023-10-02T00:59:04.011Z,8.1
2023-10-02T01:00:20.302Z,7.6
2023-10-02T01:01:36.597Z,7.9
2023-10-02T01:02:52.901Z,7.8
2023-10-02T01:04:09.177Z,7.4
2023-10-02T01:05:24.499Z,8.1
2023-10-02T01:06:40.799Z,7.7
2023-10-02T01:07:57.079Z,7.5
2023-10-02T01:10:29.666Z,7.9
2023-10-02T01:13:02.248Z,7.3
2023-10-02T01:14:17.579Z,7.8
2023-10-02T01:15:33.995Z,7.4
2023-10-02T01:16:49.308Z,8.1
2023-10-02T01:18:05.584Z,7.2
2023-10-02T01:19:21.887Z,7.7
2023-10-02T01:20:38.172Z,7.5
2023-10-02T01:21:54.470Z,7.3
2023-10-02T01:23:10.764Z,7.7
2023-10-02T01:24:27.055Z,7.9
2023-10-02T01:25:43.352Z,7.6
2023-10-02T01:28:14.959Z,7.3
2023-10-02T01:29:31.372Z,7.9
2023-10-02T01:30:47.679Z,7.6
2023-10-02T01:32:03.980Z,7
2023-10-02T01:33:20.266Z,7.7
2023-10-02T01:34:36.560Z,7.6
2023-10-02T01:35:52.849Z,7.7
2023-10-02T01:37:09.140Z,7.7
2023-10-02T01:38:25.447Z,7.5
2023-10-02T01:39:41.727Z,7.7
2023-10-02T01:40:57.046Z,7.2
2023-10-02T01:43:28.642Z,7.2
2023-10-02T01:44:44.956Z,7.3
2023-10-02T01:46:01.243Z,7.1
2023-10-02T01:47:17.524Z,7.7
2023-10-02T01:48:33.822Z,7.7
2023-10-02T01:49:50.118Z,7.9
2023-10-02T01:51:06.419Z,7.6
2023-10-02T01:52:22.703Z,7.5
2023-10-02T01:53:39.010Z,7.9
2023-10-02T01:54:55.294Z,7.2
2023-10-02T01:56:11.600Z,7.4
2023-10-02T01:57:27.882Z,7.7
2023-10-02T01:58:43.200Z,7.8
2023-10-02T01:59:59.487Z,7.3
2023-10-02T02:01:15.776Z,7.3
2023-10-02T02:02:32.084Z,7.1
2023-10-02T02:03:48.374Z,7.2
2023-10-02T02:06:20.963Z,7.1
2023-10-02T02:07:37.254Z,7.6
2023-10-02T02:08:53.539Z,7.4
2023-10-02T02:10:09.844Z,7.4
2023-10-02T02:11:26.125Z,7.8
2023-10-02T02:12:42.419Z,7.1
2023-10-02T02:13:58.716Z,7.4
2023-10-02T02:15:15.018Z,7.6
2023-10-02T02:16:30.321Z,7.4
2023-10-02T02:17:46.610Z,7.4
2023-10-02T02:19:02.920Z,7.6
2023-10-02T02:21:35.500Z,7.2
2023-10-02T02:22:51.787Z,6.9
2023-10-02T02:24:08.097Z,7.2
2023-10-02T02:25:24.374Z,6.8
2023-10-02T02:26:40.675Z,7.3
2023-10-02T02:27:56.963Z,6.9
2023-10-02T02:29:13.262Z,7.2
2023-10-02T02:30:29.560Z,7.1
2023-10-02T02:31:45.863Z,6.7
2023-10-02T02:35:33.752Z,6.9
2023-10-02T02:36:49.064Z,6.8
2023-10-02T02:38:05.360Z,7
2023-10-02T02:39:20.669Z,7.1
2023-10-02T02:40:36.959Z,7.9
2023-10-02T02:41:53.270Z,7.6
2023-10-02T02:44:25.837Z,6.9
2023-10-02T02:45:42.132Z,8.6
2023-10-02T02:46:58.424Z,7.5
2023-10-02T02:48:14.729Z,7.2
2023-10-02T02:49:31.018Z,7.6
2023-10-02T02:50:47.311Z,6.9
2023-10-02T02:52:03.602Z,7.3
2023-10-02T02:53:19.908Z,6.8
2023-10-02T02:54:36.191Z,7.1
2023-10-02T02:55:51.500Z,8.3
2023-10-02T02:57:07.810Z,8.2
2023-10-02T02:59:40.381Z,7
2023-10-02T03:00:55.695Z,7
2023-10-02T03:02:11.015Z,7.1
2023-10-02T03:03:27.307Z,7.1
2023-10-02T03:04:43.603Z,6.6
2023-10-02T03:07:16.194Z,7
2023-10-02T03:08:32.493Z,7.3
2023-10-02T03:09:48.783Z,6.7
2023-10-02T03:11:05.080Z,11.4
2023-10-02T03:12:21.369Z,6.8
2023-10-02T03:14:53.948Z,6.6
2023-10-02T03:16:10.256Z,6.5
2023-10-02T03:17:26.548Z,6.5
2023-10-02T03:18:41.851Z,6.4
2023-10-02T03:19:58.135Z,6.4
2023-10-02T03:21:14.447Z,6.3
2023-10-02T03:22:30.724Z,6.9
2023-10-02T03:23:47.034Z,6.3
2023-10-02T03:25:03.320Z,6.4
2023-10-02T03:26:19.621Z,6.4
2023-10-02T03:27:35.915Z,6.2
2023-10-02T03:28:52.197Z,6.6
2023-10-02T03:30:08.501Z,6.4
2023-10-02T03:31:24.782Z,6.6
2023-10-02T03:32:41.075Z,6.1
2023-10-02T03:33:56.405Z,6.3
2023-10-02T03:35:11.706Z,6.1
2023-10-02T03:36:27.999Z,6
2023-10-02T03:37:44.288Z,6.4
2023-10-02T03:39:00.595Z,6.1
2023-10-02T03:40:16.882Z,6.3
2023-10-02T03:41:33.171Z,6.3
2023-10-02T03:42:49.469Z,6.4
2023-10-02T03:45:22.066Z,6.3
2023-10-02T03:46:38.348Z,6.1
2023-10-02T03:47:54.653Z,6.3
2023-10-02T03:49:10.944Z,6
2023-10-02T03:50:27.228Z,6.2
2023-10-02T03:51:42.554Z,6
2023-10-02T03:52:58.838Z,6.1
2023-10-02T03:54:15.127Z,6.3
2023-10-02T03:55:31.438Z,5.7
2023-10-02T03:56:47.714Z,5.8
2023-10-02T03:58:04.019Z,6
2023-10-02T03:59:20.316Z,6.4
2023-10-02T04:00:35.636Z,6.1
2023-10-02T04:01:50.938Z,5.7
2023-10-02T04:03:07.223Z,6.1
2023-10-02T04:04:23.524Z,6
2023-10-02T04:05:39.821Z,5.6
2023-10-02T04:06:56.105Z,6.3
2023-10-02T04:08:12.400Z,6.3
2023-10-02T04:09:28.696Z,5.9
2023-10-02T04:10:44.996Z,5.9
2023-10-02T04:12:01.292Z,6.1
2023-10-02T04:13:17.590Z,5.8
2023-10-02T04:15:50.177Z,5.6
2023-10-02T04:17:06.455Z,5.7
2023-10-02T04:18:21.000Z,5.6
2023-10-02T04:19:38.071Z,6.2
2023-10-02T04:20:54.360Z,6.2
2023-10-02T04:23:26.955Z,6.1
2023-10-02T04:24:42.270Z,5.7
2023-10-02T04:25:57.568Z,5.7
2023-10-02T04:27:13.866Z,5.6
2023-10-02T04:28:30.169Z,5.7
2023-10-02T04:29:46.456Z,5.5
2023-10-02T04:31:02.741Z,5.4
2023-10-02T04:32:19.049Z,5.4
2023-10-02T04:33:35.338Z,5.5
2023-10-02T04:34:51.569Z,5.7
2023-10-02T04:36:07.878Z,5.7
2023-10-02T04:37:23.141Z,5.7
2023-10-02T04:38:38.390Z,5.9
2023-10-02T04:39:54.634Z,5.8
2023-10-02T04:41:10.871Z,5.5
2023-10-02T04:42:27.137Z,5.6
2023-10-02T04:43:43.365Z,5.6
2023-10-02T04:46:15.868Z,5.7
2023-10-02T04:47:31.123Z,5.9
2023-10-02T04:48:47.368Z,5.7
2023-10-02T04:50:03.608Z,5.4
2023-10-02T04:51:19.842Z,5.5
2023-10-02T04:53:52.321Z,5.5
2023-10-02T04:55:07.588Z,5.3
2023-10-02T04:56:22.839Z,5.9
2023-10-02T04:57:39.086Z,5.5
2023-10-02T05:00:11.554Z,5.5
2023-10-02T05:01:27.795Z,5.6
2023-10-02T05:02:44.029Z,5.8
2023-10-02T05:04:00.275Z,5.4
2023-10-02T05:05:16.516Z,5.8
2023-10-02T05:06:32.765Z,5.3
2023-10-02T05:07:48.999Z,5.3
2023-10-02T05:09:05.228Z,5.4
2023-10-02T05:10:21.488Z,5.6
2023-10-02T05:11:37.709Z,5.7
2023-10-02T05:12:53.959Z,5.8
2023-10-02T05:14:09.217Z,5.7
2023-10-02T05:16:41.701Z,5.4
2023-10-02T05:17:56.955Z,5.6
2023-10-02T05:19:12.209Z,5.2
2023-10-02T05:20:28.443Z,5.4
2023-10-02T05:21:44.685Z,5.5
2023-10-02T05:23:00.927Z,5.3
2023-10-02T05:24:17.175Z,5.5
2023-10-02T05:25:33.409Z,5.5
2023-10-02T05:26:49.654Z,5.9
2023-10-02T05:28:05.884Z,5.8
2023-10-02T05:29:22.126Z,5.5
2023-10-02T05:30:37.381Z,5.4
2023-10-02T05:31:52.657Z,5.5
2023-10-02T05:33:08.881Z,5.7
2023-10-02T05:34:25.127Z,5.9
2023-10-02T05:35:41.375Z,5.5
2023-10-02T05:36:57.615Z,5.6
2023-10-02T05:38:13.854Z,5.2
2023-10-02T05:39:30.079Z,5.3
2023-10-02T05:40:46.319Z,5.4
2023-10-02T05:42:02.573Z,5.2
2023-10-02T05:43:17.819Z,5.6
2023-10-02T05:44:33.093Z,5.4
2023-10-02T05:45:49.328Z,5.7
2023-10-02T05:47:05.562Z,5.6
2023-10-02T05:48:21.807Z,5.1
2023-10-02T05:49:38.043Z,6
2023-10-02T05:50:54.283Z,5.9
2023-10-02T05:52:10.514Z,5.5
2023-10-02T05:53:26.759Z,5.5
2023-10-02T05:54:43.005Z,5.7
2023-10-02T05:55:59.252Z,5.6
2023-10-02T05:57:15.482Z,5.3
2023-10-02T05:58:31.734Z,5.4
2023-10-02T05:59:47.971Z,5.4
2023-10-02T06:01:03.216Z,5.3
2023-10-02T06:02:19.471Z,5.4
2023-10-02T06:03:35.695Z,5.2
2023-10-02T06:04:51.932Z,5.2
2023-10-02T06:06:08.185Z,5.2
2023-10-02T06:07:24.413Z,5.4
2023-10-02T06:08:40.666Z,5.7
2023-10-02T06:09:56.889Z,5.2
2023-10-02T06:11:13.136Z,5.4
2023-10-02T06:12:29.387Z,5.3
2023-10-02T06:13:45.617Z,5.5
2023-10-02T06:15:01.858Z,5.7
2023-10-02T06:16:18.092Z,5.2
2023-10-02T06:17:34.454Z,5.6
2023-10-02T06:18:50.700Z,5.3
2023-10-02T06:20:06.931Z,5.3
2023-10-02T06:21:23.170Z,5.3
2023-10-02T06:22:39.425Z,5
2023-10-02T06:23:55.660Z,5.2
2023-10-02T06:25:11.907Z,5.2
2023-10-02T06:26:28.148Z,5.2
2023-10-02T06:27:44.380Z,5.3
2023-10-02T06:29:00.625Z,5.2
2023-10-02T06:31:33.093Z,5.4
2023-10-02T06:34:05.580Z,5.2
2023-10-02T06:35:21.944Z,5.7
2023-10-02T06:36:38.176Z,5.6
2023-10-02T06:37:54.423Z,5
2023-10-02T06:39:10.659Z,5.4
2023-10-02T06:40:26.889Z,5.4
2023-10-02T06:41:43.147Z,5.5
2023-10-02T06:42:59.374Z,5.1
2023-10-02T06:44:15.610Z,5.1
2023-10-02T06:45:31.849Z,5.1
2023-10-02T06:46:48.102Z,5.4
2023-10-02T06:48:04.338Z,5.1
2023-10-02T06:50:36.826Z,4.8
2023-10-02T06:51:52.070Z,5.1
2023-10-02T06:53:07.335Z,4.9
2023-10-02T06:54:23.573Z,4.9
2023-10-02T06:55:39.809Z,5.3
2023-10-02T06:56:56.063Z,4.7
2023-10-02T06:58:12.287Z,4.9
2023-10-02T06:59:28.000Z,5.2
2023-10-02T07:00:44.774Z,5.2
2023-10-02T07:03:17.252Z,5.5
2023-10-02T07:04:33.491Z,5
2023-10-02T07:05:49.724Z,5.1
2023-10-02T07:07:05.979Z,4.9
2023-10-02T07:08:22.210Z,5
2023-10-02T07:09:37.472Z,5.2
2023-10-02T07:10:53.700Z,5.1
2023-10-02T07:12:09.956Z,4.7
2023-10-02T07:13:26.183Z,5
2023-10-02T07:14:42.436Z,4.7
2023-10-02T07:15:58.668Z,5.2
2023-10-02T07:17:14.906Z,4.8
2023-10-02T07:18:30.162Z,5.1
2023-10-02T07:19:45.421Z,5.4
2023-10-02T07:22:17.895Z,4.8
2023-10-02T07:23:34.139Z,4.9
2023-10-02T07:24:50.384Z,4.8
2023-10-02T07:26:06.614Z,5
2023-10-02T07:27:22.857Z,5
2023-10-02T07:28:39.102Z,4.8
2023-10-02T07:31:11.584Z,5.1
2023-10-02T07:32:27.830Z,4.9
2023-10-02T07:33:44.196Z,5.1
2023-10-02T07:34:59.468Z,4.7
2023-10-02T07:36:15.701Z,5
2023-10-02T07:37:31.936Z,5.2
2023-10-02T07:38:48.172Z,4.9
2023-10-02T07:40:04.412Z,4.7
2023-10-02T07:41:20.661Z,4.9
2023-10-02T07:42:36.902Z,4.7
2023-10-02T07:43:53.128Z,4.7
2023-10-02T07:45:09.382Z,5
2023-10-02T07:46:24.634Z,5
2023-10-02T07:47:39.902Z,5.1
2023-10-02T07:48:56.132Z,4.9
2023-10-02T07:50:12.377Z,4.9
2023-10-02T07:51:28.616Z,5
2023-10-02T07:52:44.845Z,5.1
2023-10-02T07:54:01.087Z,4.9
2023-10-02T07:55:17.344Z,5
2023-10-02T07:56:33.580Z,4.9
2023-10-02T07:57:49.823Z,5
2023-10-02T07:59:06.048Z,4.9
2023-10-02T08:00:22.300Z,4.4
2023-10-02T08:01:38.526Z,4.8
2023-10-02T08:02:54.778Z,4.9
2023-10-02T08:04:10.040Z,4.7
2023-10-02T08:05:26.272Z,4.7
2023-10-02T08:06:42.501Z,4.7
2023-10-02T08:07:58.748Z,4.8
2023-10-02T08:09:14.992Z,5
2023-10-02T08:10:31.233Z,5.1
2023-10-02T08:11:47.468Z,5
2023-10-02T08:13:03.709Z,4.9
2023-10-02T08:14:19.975Z,4.7
2023-10-02T08:15:36.188Z,5.2
2023-10-02T08:16:52.437Z,5.1
2023-10-02T08:18:08.674Z,5
2023-10-02T08:19:24.903Z,5
2023-10-02T08:20:40.163Z,5
2023-10-02T08:21:56.401Z,5.2
2023-10-02T08:23:12.648Z,4.6
2023-10-02T08:24:28.886Z,4.4
2023-10-02T08:25:45.129Z,4.7
2023-10-02T08:27:01.322Z,4.8
2023-10-02T08:28:17.559Z,5.4
2023-10-02T08:29:33.800Z,5.1
2023-10-02T08:30:50.054Z,4.9
2023-10-02T08:32:06.278Z,4.6
2023-10-02T08:33:22.516Z,4.9
2023-10-02T08:34:38.764Z,5.1
2023-10-02T08:35:54.998Z,4.9
2023-10-02T08:37:10.257Z,5.1
2023-10-02T08:38:26.509Z,5.1
2023-10-02T08:39:42.731Z,4.5
2023-10-02T08:40:58.988Z,5.2
2023-10-02T08:42:15.217Z,4.8
2023-10-02T08:43:31.453Z,5.4
2023-10-02T08:44:47.697Z,5
2023-10-02T08:46:03.936Z,5.2
2023-10-02T08:47:20.173Z,5
2023-10-02T08:48:36.426Z,5.2
2023-10-02T08:49:52.658Z,5
2023-10-02T08:51:08.896Z,5
2023-10-02T08:52:25.140Z,5.1
2023-10-02T08:53:40.400Z,5.2
2023-10-02T08:54:56.632Z,5.9
2023-10-02T08:56:12.871Z,5.9
2023-10-02T08:57:29.114Z,5.2
2023-10-02T08:58:45.346Z,4.9
2023-10-02T09:01:17.825Z,5.2
2023-10-02T09:02:33.103Z,5.3
2023-10-02T09:03:49.324Z,5.4
2023-10-02T09:05:05.000Z,5.3
2023-10-02T09:06:21.803Z,5.2
2023-10-02T09:07:38.058Z,4.8
2023-10-02T09:08:54.288Z,5.2
2023-10-02T09:10:10.533Z,4.9
2023-10-02T09:11:26.769Z,5.3
2023-10-02T09:13:59.242Z,5.2
2023-10-02T09:15:15.483Z,5.1
2023-10-02T09:16:31.727Z,5.2
2023-10-02T09:17:47.981Z,4.9
2023-10-02T09:19:04.326Z,5.2
2023-10-02T09:20:20.572Z,5.6
2023-10-02T09:21:36.813Z,5.4
2023-10-02T09:22:53.056Z,5.3
2023-10-02T09:24:09.296Z,5.3
2023-10-02T09:25:25.535Z,5.1
2023-10-02T09:27:58.021Z,5.3
2023-10-02T09:29:14.262Z,5.4
2023-10-02T09:30:30.488Z,5.8
2023-10-02T09:31:46.734Z,6.1
2023-10-02T09:33:02.960Z,5.8
2023-10-02T09:34:19.208Z,5.4
2023-10-02T09:35:34.473Z,5.7
2023-10-02T09:36:50.714Z,7.3
2023-10-02T09:38:06.953Z,7.8
2023-10-02T09:39:23.179Z,8.1
2023-10-02T09:40:39.418Z,7.5
2023-10-02T09:41:55.669Z,6.7
2023-10-02T09:43:11.902Z,6.3
2023-10-02T09:45:44.391Z,5.8
2023-10-02T09:47:00.622Z,5.6
2023-10-02T09:48:16.872Z,5.5
2023-10-02T09:50:49.342Z,5.4
2023-10-02T09:52:04.597Z,5.3
2023-10-02T09:53:19.856Z,5.9
2023-10-02T09:54:36.102Z,6.9
2023-10-02T09:55:52.340Z,5.7
2023-10-02T09:57:08.588Z,8.1
2023-10-02T09:58:24.812Z,5.8
2023-10-02T09:59:41.054Z,5.2
2023-10-02T10:00:57.308Z,5.2
2023-10-02T10:02:13.535Z,5.6
2023-10-02T10:03:29.779Z,5.6
2023-10-02T10:04:45.036Z,5.9
2023-10-02T10:06:00.288Z,5.7
2023-10-02T10:07:16.529Z,5.5
2023-10-02T10:08:32.776Z,5.7
2023-10-02T10:09:49.020Z,5.5
2023-10-02T10:11:05.250Z,5.4
2023-10-02T10:12:21.497Z,5.6
2023-10-02T10:13:37.730Z,5.7
2023-10-02T10:14:53.969Z,5.9
2023-10-02T10:16:10.214Z,5.7
2023-10-02T10:17:26.463Z,5.7
2023-10-02T10:19:58.939Z,5.6
2023-10-02T10:21:15.173Z,5.8
2023-10-02T10:22:30.433Z,6
2023-10-02T10:23:46.671Z,5.3
2023-10-02T10:25:02.915Z,5.1
2023-10-02T10:26:19.145Z,5.8
2023-10-02T10:27:35.379Z,5.7
2023-10-02T10:28:51.631Z,5.6
2023-10-02T10:30:07.866Z,5.4
2023-10-02T10:31:24.102Z,5.7
2023-10-02T10:32:40.354Z,5.6
2023-10-02T10:33:56.586Z,6
2023-10-02T10:35:12.837Z,5.7
2023-10-02T10:36:29.056Z,5.8
2023-10-02T10:37:45.302Z,5.8
2023-10-02T10:39:00.563Z,6
2023-10-02T10:40:16.813Z,5.8
2023-10-02T10:41:33.045Z,5.8
2023-10-02T10:42:49.283Z,5.9
2023-10-02T10:44:05.511Z,5.8
2023-10-02T10:45:21.761Z,5.5
2023-10-02T10:46:38.008Z,5.7
2023-10-02T10:47:54.232Z,5.8
2023-10-02T10:49:10.491Z,5.6
2023-10-02T10:50:26.713Z,6
2023-10-02T10:51:42.957Z,6.4
2023-10-02T10:52:59.199Z,5.8
2023-10-02T10:54:15.451Z,5.5
2023-10-02T10:55:30.703Z,5.7
2023-10-02T10:56:46.931Z,5.9
2023-10-02T10:58:03.185Z,5.8
2023-10-02T10:59:19.423Z,6
2023-10-02T11:00:35.655Z,5.4
2023-10-02T11:01:51.894Z,5.8
2023-10-02T11:03:08.133Z,6.3
2023-10-02T11:04:24.382Z,6.3
2023-10-02T11:05:40.609Z,6
2023-10-02T11:06:56.868Z,6.1
2023-10-02T11:08:13.104Z,6.4
2023-10-02T11:09:29.343Z,6.3
2023-10-02T11:10:45.573Z,6
2023-10-02T11:12:00.827Z,6.2
2023-10-02T11:13:17.080Z,6.1
2023-10-02T11:14:33.320Z,6.5
2023-10-02T11:15:49.562Z,6.3
2023-10-02T11:17:05.785Z,6.1
2023-10-02T11:18:22.024Z,6.1
2023-10-02T11:19:38.280Z,6.3
2023-10-02T11:20:54.517Z,6.4
2023-10-02T11:22:10.749Z,6.6
2023-10-02T11:23:26.992Z,5.9
2023-10-02T11:24:43.236Z,6.6
2023-10-02T11:25:59.468Z,6.4
2023-10-02T11:27:15.705Z,6.2
2023-10-02T11:28:30.964Z,6.3
2023-10-02T11:29:47.208Z,6.5
2023-10-02T11:31:03.454Z,6.7
2023-10-02T11:32:19.694Z,6.6
2023-10-02T11:33:35.929Z,6.4
2023-10-02T11:34:52.168Z,6.3
2023-10-02T11:36:08.414Z,6.5
2023-10-02T11:37:24.654Z,6.1
2023-10-02T11:38:40.896Z,6.5
2023-10-02T11:39:57.121Z,6.3
2023-10-02T11:41:13.375Z,6.3
2023-10-02T11:42:29.608Z,6.2
2023-10-02T11:43:45.851Z,6.1
2023-10-02T11:45:01.104Z,6.1
2023-10-02T11:46:17.346Z,6.5
2023-10-02T11:47:33.586Z,6.3
2023-10-02T11:48:49.828Z,6.3
2023-10-02T11:50:06.063Z,6.5
2023-10-02T11:51:22.291Z,6.2
2023-10-02T11:52:38.543Z,5.9
2023-10-02T11:53:54.774Z,6.1
2023-10-02T11:55:11.022Z,6.2
2023-10-02T11:56:27.257Z,6.2
2023-10-02T11:57:43.492Z,5.6
2023-10-02T11:58:59.744Z,5.8
2023-10-02T12:00:15.983Z,5.8
2023-10-02T12:01:31.246Z,5.8
2023-10-02T12:02:47.484Z,6
2023-10-02T12:04:03.723Z,5.9
2023-10-02T12:05:19.952Z,5.9
2023-10-02T12:06:36.200Z,5.5
2023-10-02T12:07:52.443Z,5.4
2023-10-02T12:09:08.678Z,5.5
2023-10-02T12:10:24.905Z,5.9
2023-10-02T12:11:41.164Z,5.4
2023-10-02T12:12:57.397Z,5.6
2023-10-02T12:14:13.639Z,6
2023-10-02T12:15:29.869Z,6
2023-10-02T12:16:46.107Z,5.5
2023-10-02T12:18:02.476Z,5.2
2023-10-02T12:19:18.721Z,5.3
2023-10-02T12:20:34.964Z,5.4
2023-10-02T12:23:07.427Z,5.8
2023-10-02T12:24:23.677Z,5.7
2023-10-02T12:25:39.910Z,5.9
2023-10-02T12:26:56.147Z,5.5
2023-10-02T12:28:12.396Z,6
2023-10-02T12:29:28.655Z,5.4
2023-10-02T12:30:44.886Z,5.2
2023-10-02T12:32:01.121Z,5.7
2023-10-02T12:33:17.358Z,5.5
2023-10-02T12:34:32.606Z,5.4
2023-10-02T12:35:48.852Z,5.1
2023-10-02T12:37:05.097Z,5
2023-10-02T12:38:21.335Z,6.3
2023-10-02T12:39:37.580Z,5.6
2023-10-02T12:40:53.802Z,4.6
2023-10-02T12:42:10.063Z,4.9
2023-10-02T12:43:26.297Z,4.6
2023-10-02T12:44:42.539Z,4.7
2023-10-02T12:45:58.778Z,4.6
2023-10-02T12:47:15.008Z,4.5
2023-10-02T12:48:31.257Z,4.4
2023-10-02T12:49:47.490Z,4.4
2023-10-02T12:51:02.757Z,4
2023-10-02T12:52:18.979Z,4.4
2023-10-02T12:53:35.237Z,4.4
2023-10-02T12:54:51.459Z,4.6
2023-10-02T12:56:07.705Z,4.6
2023-10-02T12:57:23.941Z,4.6
2023-10-02T12:58:40.193Z,4.5
2023-10-02T12:59:56.420Z,4.7
2023-10-02T13:01:12.659Z,5.1
2023-10-02T13:02:28.910Z,4.9
2023-10-02T13:03:45.142Z,4.8
2023-10-02T13:05:01.378Z,4.6
2023-10-02T13:06:17.627Z,4.9
2023-10-02T13:08:49.118Z,4.5
2023-10-02T13:10:05.355Z,4.8
2023-10-02T13:11:21.605Z,4.8
2023-10-02T13:12:37.850Z,5
2023-10-02T13:13:54.090Z,5
2023-10-02T13:15:10.316Z,5
2023-10-02T13:17:42.796Z,4.9
2023-10-02T13:18:59.177Z,5
2023-10-02T13:20:15.403Z,5.5
2023-10-02T13:21:31.654Z,5.2
2023-10-02T13:22:47.889Z,4.7
2023-10-02T13:24:04.141Z,5.1
2023-10-02T13:25:20.364Z,4.7
2023-10-02T13:26:36.605Z,5.1
2023-10-02T13:27:52.855Z,5.2
2023-10-02T13:29:09.097Z,4.6
2023-10-02T13:30:25.326Z,4.7
2023-10-02T13:31:41.568Z,4.7
2023-10-02T13:32:57.818Z,4.5
2023-10-02T13:34:14.050Z,4.6
2023-10-02T13:35:29.298Z,4.7
2023-10-02T13:36:45.549Z,4.8
2023-10-02T13:38:01.775Z,4.7
2023-10-02T13:39:18.024Z,4.8
2023-10-02T13:40:34.277Z,4.8
2023-10-02T13:41:50.507Z,4.7
2023-10-02T13:43:06.752Z,4.9
2023-10-02T13:44:22.979Z,5.1
2023-10-02T13:45:39.220Z,5.2
2023-10-02T13:46:55.459Z,5.6
2023-10-02T13:48:11.711Z,4.7
2023-10-02T13:49:27.942Z,4.9
2023-10-02T13:50:44.181Z,5
2023-10-02T13:51:59.451Z,5.1
2023-10-02T13:53:15.672Z,4.9
2023-10-02T13:54:31.924Z,4.8
2023-10-02T13:55:48.168Z,4.9
2023-10-02T13:57:04.392Z,4.6
2023-10-02T13:58:20.639Z,4.9
2023-10-02T14:02:09.349Z,5.4
2023-10-02T14:03:25.596Z,5.1
2023-10-02T14:04:41.835Z,4.3
2023-10-02T14:05:58.088Z,4.8
2023-10-02T14:07:14.317Z,5.1
2023-10-02T14:08:29.574Z,4.4
2023-10-02T14:09:45.820Z,4.5
2023-10-02T14:11:02.045Z,4.1
2023-10-02T14:12:18.291Z,4.4
2023-10-02T14:13:34.527Z,4.9
2023-10-02T14:14:50.774Z,4.6
2023-10-02T14:16:07.017Z,4.7
2023-10-02T14:17:23.244Z,5
2023-10-02T14:18:39.502Z,4.7
2023-10-02T14:19:55.726Z,4.6
2023-10-02T14:21:11.975Z,4.7
2023-10-02T14:22:28.208Z,4.6
2023-10-02T14:23:44.456Z,4.8
2023-10-02T14:24:59.710Z,5.2
2023-10-02T14:26:15.953Z,4.5
2023-10-02T14:27:32.191Z,4.8
2023-10-02T14:28:48.431Z,4.6
2023-10-02T14:30:04.672Z,4.3
2023-10-02T14:31:20.917Z,4.8
2023-10-02T14:32:37.146Z,4.8
2023-10-02T14:33:53.399Z,4.5
2023-10-02T14:35:09.623Z,4.5
2023-10-02T14:36:25.872Z,4.4
2023-10-02T14:37:42.101Z,4.6
2023-10-02T14:38:58.354Z,4.6
2023-10-02T14:40:14.585Z,4.5
2023-10-02T14:41:29.841Z,4.5
2023-10-02T14:42:46.075Z,4.4
2023-10-02T14:44:02.332Z,4.7
2023-10-02T14:45:18.561Z,4.6
2023-10-02T14:46:34.815Z,4.2
2023-10-02T14:47:51.055Z,4.6
2023-10-02T14:49:07.281Z,4.4
2023-10-02T14:50:23.526Z,4.8
2023-10-02T14:51:39.762Z,4.4
2023-10-02T14:52:56.000Z,5
2023-10-02T14:54:12.245Z,4.6
2023-10-02T14:55:28.484Z,4.3
2023-10-02T14:56:44.734Z,4.4
2023-10-02T14:57:59.991Z,4
2023-10-02T14:59:16.231Z,4.1
2023-10-02T15:00:32.465Z,4.1
2023-10-02T15:01:48.693Z,4
2023-10-02T15:03:04.944Z,4.4
2023-10-02T15:04:21.173Z,4.3
2023-10-02T15:05:37.420Z,4.6
2023-10-02T15:06:53.657Z,4.4
2023-10-02T15:08:09.902Z,5.4
2023-10-02T15:11:58.629Z,4.5
2023-10-02T15:13:14.862Z,4.2
2023-10-02T15:14:30.118Z,4.3
2023-10-02T15:15:46.361Z,4.7
2023-10-02T15:17:02.599Z,4.1
2023-10-02T15:18:18.836Z,4.1
2023-10-02T15:19:35.081Z,4
2023-10-02T15:20:51.310Z,4.2
2023-10-02T15:22:07.552Z,4.2
2023-10-02T15:23:23.788Z,5.4
2023-10-02T15:24:40.030Z,7.8
2023-10-02T15:25:56.267Z,5.3
2023-10-02T15:27:12.510Z,4.4
2023-10-02T15:28:28.760Z,5.5
2023-10-02T15:29:44.991Z,5.5
2023-10-02T15:31:00.250Z,4.3
2023-10-02T15:32:16.482Z,4.3
2023-10-02T15:33:32.732Z,4.3
2023-10-02T15:34:48.980Z,4.3
2023-10-02T15:36:05.202Z,4.5
2023-10-02T15:37:21.453Z,4.2
2023-10-02T15:38:37.692Z,4.3
2023-10-02T15:41:10.164Z,4.6
2023-10-02T15:42:26.414Z,4.4
2023-10-02T15:43:42.651Z,4.2
2023-10-02T15:44:58.900Z,4
2023-10-02T15:46:15.138Z,4.5
2023-10-02T15:47:31.379Z,4.2
2023-10-02T15:48:46.634Z,4.5
2023-10-02T15:50:02.872Z,4.3
2023-10-02T15:51:19.103Z,4.2
2023-10-02T15:52:35.337Z,4.1
2023-10-02T15:53:51.579Z,4.3
2023-10-02T15:55:07.821Z,3.9
2023-10-02T15:56:24.072Z,4.5
2023-10-02T15:58:56.540Z,4.3
2023-10-02T16:00:12.792Z,4.6
2023-10-02T16:01:29.032Z,4.4
2023-10-02T16:02:45.260Z,4.5
2023-10-02T16:04:01.509Z,4.5
2023-10-02T16:05:16.763Z,4.3
2023-10-02T16:06:33.004Z,4.9
2023-10-02T16:07:49.240Z,5.2
2023-10-02T16:09:05.491Z,5.6
2023-10-02T16:10:21.725Z,5.2
2023-10-02T16:11:37.963Z,6
2023-10-02T16:12:54.193Z,5.6
2023-10-02T16:14:10.449Z,5.3
2023-10-02T16:15:26.678Z,4.6
2023-10-02T16:16:42.913Z,4.8
2023-10-02T16:17:59.164Z,4.6
2023-10-02T16:19:15.410Z,4.7
2023-10-02T16:20:31.640Z,4.5
2023-10-02T16:21:46.893Z,4.9
2023-10-02T16:23:03.130Z,4.6
2023-10-02T16:24:19.378Z,4.5
2023-10-02T16:25:35.618Z,4.6
2023-10-02T16:26:51.856Z,4.8
2023-10-02T16:28:08.101Z,4.3
2023-10-02T16:29:24.345Z,4.6
2023-10-02T16:30:40.587Z,4.5
2023-10-02T16:31:56.819Z,4.4
2023-10-02T16:34:29.301Z,4.7
2023-10-02T16:35:45.534Z,4.4
2023-10-02T16:37:01.785Z,4.3
2023-10-02T16:38:18.023Z,4.7
2023-10-02T16:39:34.385Z,4.6
2023-10-02T16:40:50.623Z,4.5
2023-10-02T16:42:06.854Z,4.2
2023-10-02T16:43:23.087Z,4.9
2023-10-02T16:44:39.336Z,4.7
2023-10-02T16:45:55.569Z,4.8
2023-10-02T16:47:11.824Z,4.7
2023-10-02T16:48:28.065Z,4.6
2023-10-02T16:49:44.307Z,4.9
2023-10-02T16:51:00.527Z,4.8
2023-10-02T16:52:16.782Z,4.5
2023-10-02T16:53:33.024Z,5
2023-10-02T16:54:49.260Z,4.6
2023-10-02T16:56:04.504Z,4.6
2023-10-02T16:57:20.751Z,6.2
2023-10-02T16:58:37.002Z,25.7
2023-10-02T16:59:53.235Z,20.8
2023-10-02T17:01:09.468Z,5
2023-10-02T17:02:25.718Z,4.5
2023-10-02T17:03:41.945Z,4.2
2023-10-02T17:04:58.184Z,4
2023-10-02T17:06:14.426Z,3.9
2023-10-02T17:07:30.675Z,4
2023-10-02T17:08:46.922Z,4.2
2023-10-02T17:10:03.144Z,4.3
2023-10-02T17:12:35.628Z,4.3
2023-10-02T17:13:51.877Z,4
2023-10-02T17:15:07.133Z,4
2023-10-02T17:16:23.365Z,4
2023-10-02T17:17:39.599Z,4.3
2023-10-02T17:20:12.141Z,4.2
2023-10-02T17:21:28.424Z,4
2023-10-02T17:22:44.734Z,4
2023-10-02T17:24:01.016Z,4.2
2023-10-02T17:25:17.320Z,4.1
2023-10-02T17:26:33.598Z,4.1
2023-10-02T17:27:49.898Z,4.2
2023-10-02T17:29:06.194Z,3.9
2023-10-02T17:30:22.481Z,4.3
2023-10-02T17:31:38.791Z,3.9
2023-10-02T17:32:54.088Z,4.2
2023-10-02T17:35:25.703Z,4.2
2023-10-02T17:36:41.019Z,4
2023-10-02T17:37:56.345Z,4
2023-10-02T17:39:12.640Z,4
2023-10-02T17:40:28.930Z,4
2023-10-02T17:41:45.219Z,4
2023-10-02T17:43:01.511Z,6.7
2023-10-02T17:44:17.812Z,10.5
2023-10-02T17:45:34.099Z,12
2023-10-02T17:46:50.401Z,10
2023-10-02T17:48:06.678Z,8
2023-10-02T17:49:21.993Z,8.4
2023-10-02T17:50:37.311Z,6.1
2023-10-02T17:51:53.611Z,5.2
2023-10-02T17:53:09.890Z,4.6
2023-10-02T17:54:26.191Z,4.6
2023-10-02T17:55:42.479Z,5.6
2023-10-02T17:58:15.076Z,4.7
2023-10-02T17:59:31.363Z,4.9
2023-10-02T18:00:47.660Z,4.7
2023-10-02T18:02:03.950Z,4.3
2023-10-02T18:03:20.253Z,4.7
2023-10-02T18:05:52.837Z,4.6
2023-10-02T18:07:09.135Z,4.7
2023-10-02T18:08:24.445Z,4.4
2023-10-02T18:09:40.745Z,4.8
2023-10-02T18:10:57.162Z,5
2023-10-02T18:12:13.454Z,5.8
2023-10-02T18:13:29.745Z,6.5
2023-10-02T18:14:46.041Z,8.7
2023-10-02T18:16:02.324Z,9.3
2023-10-02T18:17:18.617Z,9.9
2023-10-02T18:18:34.918Z,8.5
2023-10-02T18:21:07.504Z,7.5
2023-10-02T18:22:23.806Z,8.4
2023-10-02T18:23:40.088Z,7
2023-10-02T18:24:56.395Z,6.9
2023-10-02T18:26:12.670Z,8.9
2023-10-02T18:27:27.993Z,10
2023-10-02T18:28:44.277Z,8.3
2023-10-02T18:30:00.584Z,8.3
2023-10-02T18:31:16.861Z,9.1
2023-10-02T18:32:33.172Z,7.9
2023-10-02T18:33:49.448Z,6.3
2023-10-02T18:35:04.774Z,6.8
2023-10-02T18:36:20.082Z,6.3
2023-10-02T18:37:36.384Z,5.8
2023-10-02T18:38:52.676Z,5.8